Time;durP1;ratioP1;P1;durP2;ratioP2;P2;SDS_P1;SDS_P2;PMS_P1;PMS_P2;Temp;Humidity;BMP_temperature;BMP_pressure;BME280_temperature;BME280_humidity;BME280_pressure;Samples;Min_cycle;Max_cycle;Signal;HPM_P1;HPM_P2
2022/11/11 00:00:17;;;;;;;6.35;3.75;;;;;;;-146.48;100.00;60459.00;5301369;28;20024;-73
2022/11/11 00:02:49;;;;;;;9.30;4.45;;;;;;;-146.48;100.00;60459.00;5305612;28;20034;-73
2022/11/11 00:05:21;;;;;;;10.00;5.07;;;;;;;-146.48;100.00;60459.00;5305423;28;20459;-73
2022/11/11 00:07:58;;;;;;;8.15;5.10;;;;;;;-146.48;100.00;60459.00;5305068;28;20051;-72
2022/11/11 00:10:30;;;;;;;5.65;4.43;;;;;;;-146.48;100.00;60459.00;5305170;28;20035;-73
2022/11/11 00:13:02;;;;;;;6.57;5.13;;;;;;;-146.48;100.00;60459.00;5305771;28;20024;-73
2022/11/11 00:15:40;;;;;;;8.60;5.22;;;;;;;-146.48;100.00;60459.00;5304467;28;20101;-72
2022/11/11 00:26:41;;;;;;;9.15;5.72;;;;;;;-146.48;100.00;60459.00;5304939;28;20028;-72
2022/11/11 00:29:12;;;;;;;11.10;6.38;;;;;;;-146.48;100.00;60459.00;5304077;28;20119;-73
2022/11/11 00:34:33;;;;;;;7.13;5.63;;;;;;;-146.48;100.00;60459.00;5303681;28;20044;-72
2022/11/11 00:37:04;;;;;;;8.18;6.35;;;;;;;-146.48;100.00;60459.00;5305174;28;20463;-72
2022/11/11 00:39:36;;;;;;;9.20;5.90;;;;;;;-146.48;100.00;60459.00;5304536;28;20032;-72
2022/11/11 00:42:07;;;;;;;10.52;6.57;;;;;;;-146.48;100.00;60459.00;5304548;28;20024;-72
2022/11/11 00:44:38;;;;;;;7.45;5.93;;;;;;;-146.48;100.00;60459.00;5304533;28;20032;-73
2022/11/11 00:52:50;;;;;;;8.52;6.13;;;;;;;-146.48;100.00;60459.00;5305071;28;20107;-72
2022/11/11 00:55:21;;;;;;;9.50;6.90;;;;;;;-146.48;100.00;60459.00;5304164;28;20095;-73
2022/11/11 00:57:52;;;;;;;9.23;7.45;;;;;;;-146.48;100.00;60459.00;5304192;28;20030;-72
2022/11/11 01:00:23;;;;;;;10.90;8.02;;;;;;;-146.48;100.00;60459.00;5304173;28;20024;-72
2022/11/11 01:02:56;;;;;;;10.10;7.05;;;;;;;-146.48;100.00;60459.00;5303983;28;20024;-73
2022/11/11 01:05:27;;;;;;;9.18;7.20;;;;;;;-146.48;100.00;60459.00;5304047;28;20055;-73
2022/11/11 01:07:59;;;;;;;8.45;7.18;;;;;;;-146.48;100.00;60459.00;5304717;28;20478;-73
2022/11/11 01:10:42;;;;;;;7.50;6.65;;;;;;;-146.48;100.00;60459.00;5303114;28;20418;-73
2022/11/11 01:13:25;;;;;;;10.15;7.05;;;;;;;-146.48;100.00;60459.00;5303176;28;20067;-73
2022/11/11 01:16:05;;;;;;;9.82;7.22;;;;;;;-146.48;100.00;60459.00;5304277;28;20028;-73
2022/11/11 01:18:36;;;;;;;11.63;8.85;;;;;;;-146.48;100.00;60459.00;5302799;28;20027;-73
2022/11/11 01:21:14;;;;;;;8.65;7.20;;;;;;;-146.48;100.00;60459.00;5304339;28;20464;-73
2022/11/11 01:23:48;;;;;;;10.05;7.43;;;;;;;-146.48;100.00;60459.00;5303694;28;20046;-73
2022/11/11 01:26:24;;;;;;;10.02;7.30;;;;;;;-146.48;100.00;60459.00;5303669;28;20130;-73
2022/11/11 01:28:56;;;;;;;10.25;8.43;;;;;;;-146.48;100.00;60459.00;5304191;28;20104;-73
2022/11/11 01:31:27;;;;;;;11.18;7.65;;;;;;;-146.48;100.00;60459.00;5302618;28;20102;-73
2022/11/11 01:33:59;;;;;;;9.60;8.05;;;;;;;-146.48;100.00;60459.00;5303842;28;20115;-73
2022/11/11 01:36:30;;;;;;;12.10;8.60;;;;;;;-146.48;100.00;60459.00;5303560;28;20063;-74
2022/11/11 01:39:02;;;;;;;10.68;8.45;;;;;;;-146.48;100.00;60459.00;5303530;28;20020;-74
2022/11/11 01:41:38;;;;;;;10.23;7.32;;;;;;;-146.48;100.00;60459.00;5303487;28;20463;-74
2022/11/11 01:44:12;;;;;;;9.63;7.22;;;;;;;-146.48;100.00;60459.00;5303909;28;20093;-73
2022/11/11 01:46:49;;;;;;;10.48;8.30;;;;;;;-146.48;100.00;60459.00;5303236;28;20028;-72
2022/11/11 01:49:35;;;;;;;10.82;7.38;;;;;;;-146.48;100.00;60459.00;5303162;28;20046;-73
2022/11/11 01:52:09;;;;;;;10.10;7.28;;;;;;;-146.48;100.00;60459.00;5302725;28;20031;-72
2022/11/11 01:54:44;;;;;;;9.35;7.72;;;;;;;-146.48;100.00;60459.00;5303294;28;20527;-73
2022/11/11 01:57:24;;;;;;;11.05;7.82;;;;;;;-146.48;100.00;60459.00;5303112;28;20059;-74
2022/11/11 02:00:01;;;;;;;12.20;8.18;;;;;;;-146.48;100.00;60459.00;5302778;28;20024;-73
2022/11/11 02:02:43;;;;;;;10.88;8.38;;;;;;;-146.48;100.00;60459.00;5302980;28;20096;-74
2022/11/11 02:08:09;;;;;;;13.18;8.95;;;;;;;-146.48;100.00;60459.00;5302861;28;20039;-74
2022/11/11 02:10:45;;;;;;;10.23;8.68;;;;;;;-146.48;100.00;60459.00;5302960;28;20055;-73
2022/11/11 02:16:06;;;;;;;11.80;7.97;;;;;;;-146.48;100.00;60459.00;5303419;28;20036;-73
2022/11/11 02:18:37;;;;;;;11.50;7.53;;;;;;;-146.48;100.00;60459.00;5302538;28;20103;-73
2022/11/11 02:21:19;;;;;;;10.40;8.13;;;;;;;-146.48;100.00;60459.00;5302449;28;20028;-73
2022/11/11 02:24:05;;;;;;;11.75;8.55;;;;;;;-146.48;100.00;60459.00;5303075;28;20209;-74
2022/11/11 02:26:38;;;;;;;13.75;8.55;;;;;;;-146.48;100.00;60459.00;5302474;28;20024;-73
2022/11/11 02:29:13;;;;;;;10.65;7.82;;;;;;;-146.48;100.00;60459.00;5302371;28;20467;-73
2022/11/11 02:31:44;;;;;;;12.50;8.15;;;;;;;-146.48;100.00;60459.00;5302861;28;20031;-73
2022/11/11 02:34:16;;;;;;;12.52;8.80;;;;;;;-146.48;100.00;60459.00;5301223;28;20127;-73
2022/11/11 02:36:47;;;;;;;14.05;8.32;;;;;;;-146.48;100.00;60459.00;5303289;28;20455;-73
2022/11/11 02:39:19;;;;;;;12.60;8.35;;;;;;;-146.48;100.00;60459.00;5302398;28;20032;-74
2022/11/11 02:41:56;;;;;;;16.60;8.70;;;;;;;-146.48;100.00;60459.00;5302136;28;20055;-73
2022/11/11 02:44:27;;;;;;;11.80;7.75;;;;;;;-146.48;100.00;60459.00;5302217;28;20040;-74
2022/11/11 02:46:58;;;;;;;8.93;7.05;;;;;;;-146.48;100.00;60459.00;5302875;28;20024;-73
2022/11/11 02:49:30;;;;;;;10.65;6.72;;;;;;;-146.48;100.00;60459.00;5301243;28;20032;-73
2022/11/11 02:52:01;;;;;;;10.20;7.22;;;;;;;-146.48;100.00;60459.00;5302840;28;20451;-73
2022/11/11 02:54:32;;;;;;;12.25;7.15;;;;;;;-146.48;100.00;60459.00;5302240;28;20032;-73
2022/11/11 02:57:07;;;;;;;13.20;8.20;;;;;;;-146.48;100.00;60459.00;5301775;28;20071;-73
2022/11/11 02:59:40;;;;;;;10.63;7.75;;;;;;;-146.48;100.00;60459.00;5302123;28;20447;-73
2022/11/11 03:02:11;;;;;;;11.43;8.13;;;;;;;-146.48;100.00;60459.00;5301779;28;20024;-74
2022/11/11 03:04:42;;;;;;;10.40;7.82;;;;;;;-146.48;100.00;60459.00;5302197;28;20020;-73
2022/11/11 03:07:14;;;;;;;9.45;6.63;;;;;;;-146.48;100.00;60459.00;5301831;28;20043;-73
2022/11/11 03:09:45;;;;;;;10.23;7.03;;;;;;;-146.48;100.00;60459.00;5301987;28;20024;-73
2022/11/11 03:12:16;;;;;;;10.32;7.25;;;;;;;-146.48;100.00;60459.00;5302171;28;20012;-73
2022/11/11 03:14:47;;;;;;;9.65;7.10;;;;;;;-146.48;100.00;60459.00;5302594;28;20035;-73
2022/11/11 03:23:05;;;;;;;10.55;7.07;;;;;;;-146.48;100.00;60459.00;5302939;28;20032;-74
2022/11/11 03:25:39;;;;;;;9.93;7.15;;;;;;;-146.48;100.00;60459.00;5301804;28;20024;-73
2022/11/11 03:28:12;;;;;;;8.10;6.72;;;;;;;-146.48;100.00;60459.00;5302687;28;20054;-73
2022/11/11 03:30:46;;;;;;;9.15;7.40;;;;;;;-146.48;100.00;60459.00;5301678;28;20087;-73
2022/11/11 03:33:18;;;;;;;9.35;6.97;;;;;;;-146.48;100.00;60459.00;5301514;28;20072;-73
2022/11/11 03:35:49;;;;;;;10.50;6.78;;;;;;;-146.48;100.00;60459.00;5303529;28;20059;-73
2022/11/11 03:38:23;;;;;;;10.05;7.43;;;;;;;-146.48;100.00;60459.00;5304922;28;20543;-74
2022/11/11 03:40:56;;;;;;;10.38;6.43;;;;;;;-146.48;100.00;60459.00;5306347;28;20186;-74
2022/11/11 03:43:31;;;;;;;9.52;6.88;;;;;;;-146.48;100.00;60459.00;5305809;28;20123;-74
2022/11/11 03:46:04;;;;;;;8.20;6.50;;;;;;;-146.48;100.00;60459.00;5305531;28;20032;-74
2022/11/11 03:48:35;;;;;;;10.73;6.35;;;;;;;-146.48;100.00;60459.00;5305450;28;20352;-73
2022/11/11 03:51:06;;;;;;;10.57;6.95;;;;;;;-146.48;100.00;60459.00;5305766;28;20043;-73
2022/11/11 03:53:38;;;;;;;10.95;7.68;;;;;;;-146.48;100.00;60459.00;5304553;28;20391;-73
2022/11/11 03:56:09;;;;;;;9.27;6.38;;;;;;;-146.48;100.00;60459.00;5305752;28;20378;-74
2022/11/11 03:58:40;;;;;;;9.75;6.70;;;;;;;-146.48;100.00;60459.00;5304452;28;20491;-73
2022/11/11 04:10:21;;;;;;;9.88;6.15;;;;;;;-146.48;100.00;60459.00;5305619;28;20475;-74
2022/11/11 04:16:04;;;;;;;13.13;7.05;;;;;;;-146.48;100.00;60459.00;5304629;28;20075;-74
2022/11/11 04:18:16;;;;;;;10.15;6.53;;;;;;;-146.48;100.00;60459.00;5305170;28;20044;-74
2022/11/11 04:23:36;;;;;;;11.23;7.45;;;;;;;-146.48;100.00;60459.00;5304903;28;20032;-74
2022/11/11 04:26:08;;;;;;;8.98;7.32;;;;;;;-146.48;100.00;60459.00;5305449;28;20368;-73
2022/11/11 04:31:29;;;;;;;10.43;7.30;;;;;;;-146.48;100.00;60459.00;5304758;28;20020;-73
2022/11/11 04:34:00;;;;;;;11.27;7.88;;;;;;;-146.48;100.00;60459.00;5304158;28;20063;-73
2022/11/11 04:36:31;;;;;;;10.90;7.57;;;;;;;-146.48;100.00;60459.00;5304453;28;20051;-73
2022/11/11 04:42:06;;;;;;;9.52;7.82;;;;;;;-146.48;100.00;60459.00;5291949;28;20036;-73
2022/11/11 04:47:27;;;;;;;9.57;7.20;;;;;;;-146.48;100.00;60459.00;5303019;28;20032;-74
2022/11/11 04:49:59;;;;;;;10.35;7.90;;;;;;;-146.48;100.00;60459.00;5304856;28;20028;-74
2022/11/11 04:52:30;;;;;;;12.02;8.25;;;;;;;-146.48;100.00;60459.00;5304290;28;20570;-73
2022/11/11 04:57:51;;;;;;;10.45;7.88;;;;;;;-146.48;100.00;60459.00;5304774;28;20036;-73
2022/11/11 05:00:23;;;;;;;11.95;8.27;;;;;;;-146.48;100.00;60459.00;5304241;28;20036;-74
2022/11/11 05:08:57;;;;;;;;;;;;;;;-146.48;100.00;60459.00;5304484;28;20048;-73
2022/11/11 05:11:34;;;;;;;9.80;7.00;;;;;;;-146.48;100.00;60459.00;5303931;28;19927;-74
2022/11/11 05:22:39;;;;;;;10.40;7.22;;;;;;;-146.48;100.00;60459.00;5303594;28;20032;-73
2022/11/11 05:25:28;;;;;;;8.73;7.63;;;;;;;-146.48;100.00;60459.00;5304594;28;20020;-73
2022/11/11 05:27:59;;;;;;;;;;;;;;;-146.48;100.00;60459.00;5304616;28;20085;-73
2022/11/11 05:30:30;;;;;;;7.47;5.88;;;;;;;-146.48;100.00;60459.00;5302608;28;20405;-74
2022/11/11 05:33:02;;;;;;;8.18;6.53;;;;;;;-146.48;100.00;60459.00;5303745;28;20115;-73
2022/11/11 05:35:35;;;;;;;8.65;6.90;;;;;;;-146.48;100.00;60459.00;5303526;28;20040;-74
2022/11/11 05:38:21;;;;;;;9.55;6.35;;;;;;;-146.48;100.00;60459.00;5303270;28;20173;-74
2022/11/11 05:40:54;;;;;;;7.40;6.50;;;;;;;-146.48;100.00;60459.00;5303928;28;20103;-73
2022/11/11 05:43:26;;;;;;;9.63;7.40;;;;;;;-146.48;100.00;60459.00;5303422;28;20494;-73
2022/11/11 05:45:57;;;;;;;8.20;6.72;;;;;;;-146.48;100.00;60459.00;5303338;28;20024;-73
2022/11/11 05:48:28;;;;;;;9.27;7.00;;;;;;;-146.48;100.00;60459.00;5303228;28;20016;-73
2022/11/11 05:51:00;;;;;;;13.05;7.85;;;;;;;-146.48;100.00;60459.00;5302956;28;20433;-73
2022/11/11 05:53:32;;;;;;;9.13;6.88;;;;;;;-146.48;100.00;60459.00;5303231;28;20402;-73
2022/11/11 05:56:04;;;;;;;8.52;7.10;;;;;;;-146.48;100.00;60459.00;5303436;28;20043;-74
2022/11/11 05:58:35;;;;;;;9.88;7.38;;;;;;;-146.48;100.00;60459.00;5301923;28;20028;-73
2022/11/11 06:01:06;;;;;;;9.23;8.25;;;;;;;-146.48;100.00;60459.00;5303616;28;20048;-74
2022/11/11 06:03:37;;;;;;;8.98;7.80;;;;;;;-146.48;100.00;60459.00;5302923;28;20036;-73
2022/11/11 06:06:10;;;;;;;8.65;7.70;;;;;;;-146.48;100.00;60459.00;5302703;28;20368;-74
2022/11/11 06:08:41;;;;;;;8.02;7.28;;;;;;;-146.48;100.00;60459.00;5302844;28;20390;-73
2022/11/11 06:11:12;;;;;;;11.23;8.05;;;;;;;-146.48;100.00;60459.00;5303128;28;20024;-73
2022/11/11 06:13:44;;;;;;;8.63;7.68;;;;;;;-146.48;100.00;60459.00;5302666;28;20039;-74
2022/11/11 06:16:15;;;;;;;7.97;7.25;;;;;;;-146.48;100.00;60459.00;5302728;28;20031;-73
2022/11/11 06:18:47;;;;;;;10.38;7.40;;;;;;;-146.48;100.00;60459.00;5303309;28;20020;-74
2022/11/11 06:21:18;;;;;;;11.40;8.18;;;;;;;-146.48;100.00;60459.00;5301852;28;20023;-73
2022/11/11 06:23:49;;;;;;;11.10;9.05;;;;;;;-146.48;100.00;60459.00;5303232;28;20031;-73
2022/11/11 06:26:21;;;;;;;9.65;7.88;;;;;;;-146.48;100.00;60459.00;5301800;28;20039;-73
2022/11/11 06:28:54;;;;;;;8.23;7.38;;;;;;;-146.48;100.00;60459.00;5303113;28;20028;-73
2022/11/11 06:31:26;;;;;;;11.48;7.97;;;;;;;-146.48;100.00;60459.00;5302271;28;20027;-74
2022/11/11 06:33:58;;;;;;;9.95;7.57;;;;;;;-146.48;100.00;60459.00;5301965;28;20044;-73
2022/11/11 06:36:29;;;;;;;10.65;8.30;;;;;;;-146.48;100.00;60459.00;5302292;28;20481;-73
2022/11/11 06:39:00;;;;;;;9.88;7.82;;;;;;;-146.48;100.00;60459.00;5302853;28;20028;-73
2022/11/11 06:41:31;;;;;;;11.32;8.10;;;;;;;-146.48;100.00;60459.00;5301314;28;20036;-74
2022/11/11 06:44:03;;;;;;;9.43;8.52;;;;;;;-146.48;100.00;60459.00;5302663;28;20047;-74
2022/11/11 06:46:34;;;;;;;9.80;8.15;;;;;;;-146.48;100.00;60459.00;5302230;28;20024;-73
2022/11/11 06:49:06;;;;;;;9.20;8.30;;;;;;;-146.48;100.00;60459.00;5301670;28;20020;-73
2022/11/11 06:51:37;;;;;;;11.95;8.80;;;;;;;-146.48;100.00;60459.00;5301926;28;20020;-73
2022/11/11 06:54:08;;;;;;;9.82;8.25;;;;;;;-146.48;100.00;60459.00;5301469;28;20024;-73
2022/11/11 06:56:40;;;;;;;10.43;9.00;;;;;;;-146.48;100.00;60459.00;5301962;28;20443;-74
2022/11/11 06:59:11;;;;;;;9.93;8.80;;;;;;;-146.48;100.00;60459.00;5302589;28;20028;-74
2022/11/11 07:01:42;;;;;;;8.80;7.30;;;;;;;-146.48;100.00;60459.00;5301404;28;20378;-73
2022/11/11 07:04:13;;;;;;;10.55;8.38;;;;;;;-146.48;100.00;60459.00;5302043;28;20028;-74
2022/11/11 07:06:45;;;;;;;9.93;8.45;;;;;;;-146.48;100.00;60459.00;5302254;28;20482;-73
2022/11/11 07:09:16;;;;;;;9.27;8.27;;;;;;;-146.48;100.00;60459.00;5301025;28;20035;-74
2022/11/11 07:11:47;;;;;;;9.57;8.07;;;;;;;-146.48;100.00;60459.00;5305604;28;20364;-74
2022/11/11 07:14:19;;;;;;;8.05;7.25;;;;;;;-146.48;100.00;60459.00;5306246;28;20058;-74
2022/11/11 07:16:50;;;;;;;10.50;8.38;;;;;;;-146.48;100.00;60459.00;5305865;28;20028;-74
2022/11/11 07:19:21;;;;;;;7.60;6.57;;;;;;;-146.48;100.00;60459.00;5306137;28;20487;-74
2022/11/11 07:21:52;;;;;;;7.90;6.50;;;;;;;-146.48;100.00;60459.00;5306816;28;20089;-75
2022/11/11 07:24:23;;;;;;;8.65;6.07;;;;;;;-146.48;100.00;60459.00;5305621;28;20042;-75
2022/11/11 07:26:55;;;;;;;7.35;6.07;;;;;;;-146.48;100.00;60459.00;5306465;28;20039;-74
2022/11/11 07:29:28;;;;;;;9.30;6.75;;;;;;;-146.48;100.00;60459.00;5305258;28;20020;-75
2022/11/11 07:31:59;;;;;;;11.18;6.97;;;;;;;-146.48;100.00;60459.00;5306237;28;20047;-74
2022/11/11 07:34:30;;;;;;;9.32;6.63;;;;;;;-146.48;100.00;60459.00;5305739;28;20078;-75
2022/11/11 07:37:01;;;;;;;8.80;7.13;;;;;;;-146.48;100.00;60459.00;5305515;28;20047;-74
2022/11/11 07:39:33;;;;;;;11.82;6.80;;;;;;;-146.48;100.00;60459.00;5305701;28;20062;-74
2022/11/11 07:42:04;;;;;;;8.73;6.97;;;;;;;-146.48;100.00;60459.00;5306275;28;20081;-75
2022/11/11 07:44:35;;;;;;;10.38;7.65;;;;;;;-146.48;100.00;60459.00;5304981;28;20542;-74
2022/11/11 07:47:06;;;;;;;9.85;6.45;;;;;;;-146.48;100.00;60459.00;5306545;28;20024;-74
2022/11/11 07:49:38;;;;;;;10.90;7.35;;;;;;;-146.48;100.00;60459.00;5305585;28;20020;-74
2022/11/11 07:52:09;;;;;;;7.78;6.82;;;;;;;-146.48;100.00;60459.00;5305317;28;20078;-74
2022/11/11 07:54:41;;;;;;;7.90;7.10;;;;;;;-146.48;100.00;60459.00;5305320;28;20063;-74
2022/11/11 07:57:12;;;;;;;12.55;7.88;;;;;;;-146.48;100.00;60459.00;5305580;28;20038;-74
2022/11/11 07:59:43;;;;;;;8.40;7.25;;;;;;;-146.48;100.00;60459.00;5305102;28;20039;-74
2022/11/11 08:02:15;;;;;;;8.07;7.05;;;;;;;-146.48;100.00;60459.00;5305415;28;20039;-74
2022/11/11 08:04:47;;;;;;;10.90;7.55;;;;;;;-146.48;100.00;60459.00;5304936;28;20183;-74
2022/11/11 08:07:18;;;;;;;12.45;8.23;;;;;;;-146.48;100.00;60459.00;5300649;28;20100;-74
2022/11/11 08:09:50;;;;;;;10.05;7.80;;;;;;;-146.48;100.00;60459.00;5305363;28;20103;-74
2022/11/11 08:15:11;;;;;;;8.93;6.95;;;;;;;-146.48;100.00;60459.00;5305192;28;20028;-74
2022/11/11 08:17:43;;;;;;;10.35;7.93;;;;;;;-146.48;100.00;60459.00;5305233;28;20479;-74
2022/11/11 08:20:14;;;;;;;8.70;7.68;;;;;;;-146.48;100.00;60459.00;5304109;28;20031;-75
2022/11/11 08:22:46;;;;;;;8.40;7.47;;;;;;;-146.48;100.00;60459.00;5305175;28;20081;-74
2022/11/11 08:25:17;;;;;;;8.20;6.93;;;;;;;-146.48;100.00;60459.00;5304917;28;20108;-73
2022/11/11 08:27:48;;;;;;;11.77;7.97;;;;;;;-146.48;100.00;60459.00;5304765;28;20024;-74
2022/11/11 08:30:20;;;;;;;8.80;7.20;;;;;;;-146.48;100.00;60459.00;5304646;28;20035;-73
2022/11/11 08:33:03;;;;;;;7.82;7.00;;;;;;;-146.48;100.00;60459.00;5304658;28;20743;-74
2022/11/11 08:35:35;;;;;;;10.32;7.43;;;;;;;-146.48;100.00;60459.00;5304794;28;20028;-74
2022/11/11 08:38:06;;;;;;;8.95;7.68;;;;;;;-146.48;100.00;60459.00;5304670;28;20035;-73
2022/11/11 08:40:37;;;;;;;7.63;6.00;;;;;;;-146.48;100.00;60459.00;5303707;28;20506;-75
2022/11/11 08:43:09;;;;;;;10.43;6.43;;;;;;;-146.48;100.00;60459.00;5304619;28;20098;-74
2022/11/11 08:45:40;;;;;;;7.30;6.60;;;;;;;-146.48;100.00;60459.00;5304677;28;20035;-74
2022/11/11 08:48:11;;;;;;;8.05;6.68;;;;;;;-146.48;100.00;60459.00;5303668;28;20035;-74
2022/11/11 08:50:43;;;;;;;8.25;6.57;;;;;;;-146.48;100.00;60459.00;5304831;28;20460;-74
2022/11/11 08:53:14;;;;;;;8.18;6.88;;;;;;;-146.48;100.00;60459.00;5304235;28;20034;-74
2022/11/11 08:55:45;;;;;;;6.95;5.72;;;;;;;-146.48;100.00;60459.00;5304240;28;20020;-75
2022/11/11 08:58:17;;;;;;;6.90;5.40;;;;;;;-146.48;100.00;60459.00;5304312;28;20035;-75
2022/11/11 09:00:48;;;;;;;6.00;5.40;;;;;;;-146.48;100.00;60459.00;5303848;28;20112;-75
2022/11/11 09:03:19;;;;;;;5.90;5.20;;;;;;;-146.48;100.00;60459.00;5303883;28;20024;-74
2022/11/11 09:05:50;;;;;;;5.93;4.80;;;;;;;-146.48;100.00;60459.00;5304509;28;20039;-73
2022/11/11 09:08:22;;;;;;;4.97;4.47;;;;;;;-146.48;100.00;60459.00;5303115;28;20444;-74
2022/11/11 09:10:53;;;;;;;5.32;4.82;;;;;;;-146.48;100.00;60459.00;5304740;28;20468;-74
2022/11/11 09:13:24;;;;;;;6.07;4.57;;;;;;;-146.48;100.00;60459.00;5304051;28;20032;-75
2022/11/11 09:15:56;;;;;;;6.75;5.25;;;;;;;-146.48;100.00;60459.00;5303485;28;20555;-75
2022/11/11 09:18:30;;;;;;;5.20;4.70;;;;;;;-146.48;100.00;60459.00;5303929;28;20475;-75
2022/11/11 09:21:02;;;;;;;4.88;4.38;;;;;;;-146.48;100.00;60459.00;5304197;28;20122;-74
2022/11/11 09:23:33;;;;;;;6.45;4.53;;;;;;;-146.48;100.00;60459.00;5302907;28;20032;-75
2022/11/11 09:26:05;;;;;;;6.13;4.75;;;;;;;-146.48;100.00;60459.00;5304591;28;20024;-74
2022/11/11 09:28:36;;;;;;;7.50;5.15;;;;;;;-146.48;100.00;60459.00;5303637;28;20021;-74
2022/11/11 09:31:07;;;;;;;5.57;4.50;;;;;;;-146.48;100.00;60459.00;5303597;28;20016;-74
2022/11/11 09:33:38;;;;;;;5.25;4.38;;;;;;;-146.48;100.00;60459.00;5302355;28;20065;-75
2022/11/11 09:36:10;;;;;;;5.25;3.80;;;;;;;-146.48;100.00;60459.00;5303443;28;20645;-75
2022/11/11 09:38:41;;;;;;;7.43;5.00;;;;;;;-146.48;100.00;60459.00;5303366;28;20024;-74
2022/11/11 09:41:30;;;;;;;7.22;4.60;;;;;;;-146.48;100.00;60459.00;5303183;28;20078;-75
2022/11/11 09:44:02;;;;;;;4.90;4.22;;;;;;;-146.48;100.00;60459.00;5303450;28;20105;-74
2022/11/11 09:46:53;;;;;;;4.32;3.60;;;;;;;-146.48;100.00;60459.00;5303204;28;20044;-74
2022/11/11 09:49:41;;;;;;;6.35;4.47;;;;;;;-146.48;100.00;60459.00;5303190;28;20364;-75
2022/11/11 09:52:30;;;;;;;4.50;4.03;;;;;;;-146.48;100.00;60459.00;5302678;28;20032;-75
2022/11/11 09:55:11;;;;;;;7.40;4.53;;;;;;;-146.48;100.00;60459.00;5303904;28;20498;-74
2022/11/11 09:58:04;;;;;;;5.65;4.18;;;;;;;-146.48;100.00;60459.00;5302535;28;20494;-75
2022/11/11 10:00:36;;;;;;;4.38;3.75;;;;;;;-146.48;100.00;60459.00;5303263;28;20368;-74
2022/11/11 10:03:21;;;;;;;6.47;4.15;;;;;;;-146.48;100.00;60459.00;5303832;28;20047;-75
2022/11/11 10:06:16;;;;;;;5.20;4.20;;;;;;;-146.48;100.00;60459.00;5302832;28;20062;-75
2022/11/11 10:08:55;;;;;;;5.10;4.18;;;;;;;-146.48;100.00;60459.00;5303260;28;20062;-73
2022/11/11 10:11:46;;;;;;;;;;;;;;;-146.48;100.00;60459.00;5302423;28;20039;-74
2022/11/11 10:14:18;;;;;;;5.97;3.95;;;;;;;-146.48;100.00;60459.00;5271010;28;19912;-73
2022/11/11 10:17:05;;;;;;;3.90;3.40;;;;;;;-146.48;100.00;60459.00;5303505;28;20032;-74
2022/11/11 10:20:01;;;;;;;6.95;4.30;;;;;;;-146.48;100.00;60459.00;5302012;28;20038;-74
2022/11/11 10:22:34;;;;;;;4.88;4.03;;;;;;;-146.48;100.00;60459.00;5302554;28;20118;-74
2022/11/11 10:25:11;;;;;;;4.60;4.10;;;;;;;-146.48;100.00;60459.00;5302688;28;20222;-75
2022/11/11 10:27:45;;;;;;;3.53;3.22;;;;;;;-146.48;100.00;60459.00;5302938;28;20043;-74
2022/11/11 10:30:27;;;;;;;5.22;3.72;;;;;;;-146.48;100.00;60459.00;5302468;28;20490;-74
2022/11/11 10:33:10;;;;;;;5.68;3.63;;;;;;;-146.48;100.00;60459.00;5301978;28;20399;-73
2022/11/11 10:35:44;;;;;;;5.88;3.78;;;;;;;-146.48;100.00;60459.00;5302468;28;20032;-75
2022/11/11 10:38:39;;;;;;;3.83;3.35;;;;;;;-146.48;100.00;60459.00;5302283;28;20032;-74
2022/11/11 10:41:18;;;;;;;4.78;3.10;;;;;;;-146.48;100.00;60459.00;5302015;28;20071;-74
2022/11/11 10:43:49;;;;;;;5.05;2.97;;;;;;;-146.48;100.00;60459.00;5302814;28;20043;-74
2022/11/11 10:46:23;;;;;;;4.03;2.75;;;;;;;-146.48;100.00;60459.00;5301579;28;20471;-73
2022/11/11 10:49:16;;;;;;;3.33;2.50;;;;;;;-146.48;100.00;60459.00;5302612;28;20040;-75
2022/11/11 10:52:02;;;;;;;3.47;2.42;;;;;;;-146.48;100.00;60459.00;5302480;28;20028;-74
2022/11/11 10:54:40;;;;;;;3.58;2.45;;;;;;;-146.48;100.00;60459.00;5301727;28;20123;-75
2022/11/11 10:57:21;;;;;;;2.47;1.83;;;;;;;-146.48;100.00;60459.00;5302227;28;20039;-74
2022/11/11 11:00:01;;;;;;;2.85;2.22;;;;;;;-146.48;100.00;60459.00;5302716;28;20035;-74
2022/11/11 11:02:58;;;;;;;4.40;2.17;;;;;;;-146.48;100.00;60459.00;5301141;28;20032;-74
2022/11/11 11:05:50;;;;;;;2.65;1.55;;;;;;;-146.48;100.00;60459.00;5278081;28;20092;-74
2022/11/11 11:08:43;;;;;;;3.40;1.98;;;;;;;-146.48;100.00;60459.00;5300971;28;20023;-74
2022/11/11 11:11:18;;;;;;;2.90;1.60;;;;;;;-146.48;100.00;60459.00;5301805;28;20468;-74
2022/11/11 11:14:02;;;;;;;2.80;1.33;;;;;;;-146.48;100.00;60459.00;5302400;28;20036;-75
2022/11/11 11:16:38;;;;;;;2.90;1.60;;;;;;;-146.48;100.00;60459.00;5300930;28;20036;-74
2022/11/11 11:19:24;;;;;;;3.72;1.23;;;;;;;-146.48;100.00;60459.00;5302297;28;20024;-75
2022/11/11 11:21:57;;;;;;;2.65;1.20;;;;;;;-146.48;100.00;60459.00;5297739;28;20016;-73
2022/11/11 11:24:36;;;;;;;3.28;0.85;;;;;;;-146.48;100.00;60459.00;5301152;28;20012;-74
2022/11/11 11:27:07;;;;;;;4.17;1.30;;;;;;;-146.48;100.00;60459.00;5302466;28;20518;-73
2022/11/11 11:29:41;;;;;;;2.30;0.70;;;;;;;-146.48;100.00;60459.00;5300609;28;20107;-75
2022/11/11 11:32:20;;;;;;;2.08;0.70;;;;;;;-146.48;100.00;60459.00;5301472;28;20024;-75
2022/11/11 11:34:53;;;;;;;1.60;0.60;;;;;;;-146.48;100.00;60459.00;5301837;28;20435;-75
2022/11/11 11:37:26;;;;;;;3.33;0.70;;;;;;;-146.48;100.00;60459.00;5300542;28;20475;-73
2022/11/11 11:40:06;;;;;;;1.60;0.70;;;;;;;-146.48;100.00;60459.00;5301505;28;20027;-74
2022/11/11 11:42:38;;;;;;;2.00;0.70;;;;;;;-146.48;100.00;60459.00;5300256;28;20475;-75
2022/11/11 11:45:23;;;;;;;2.15;0.60;;;;;;;-146.48;100.00;60459.00;5302328;28;20027;-74
2022/11/11 11:48:11;;;;;;;2.33;0.60;;;;;;;-146.48;100.00;60459.00;5301774;28;20039;-74
2022/11/11 11:50:50;;;;;;;2.25;0.60;;;;;;;-146.48;100.00;60459.00;5300321;28;20034;-73
2022/11/11 11:53:39;;;;;;;1.45;0.50;;;;;;;-146.48;100.00;60459.00;5301246;28;20024;-73
2022/11/11 11:56:20;;;;;;;3.85;0.50;;;;;;;-146.48;100.00;60459.00;5301889;28;20471;-74
2022/11/11 11:59:10;;;;;;;1.67;0.47;;;;;;;-146.48;100.00;60459.00;5305084;28;20027;-73
2022/11/11 12:02:03;;;;;;;1.15;0.30;;;;;;;-146.48;100.00;60459.00;5305445;28;20028;-74
2022/11/11 12:04:43;;;;;;;1.02;0.40;;;;;;;-146.48;100.00;60459.00;5304312;28;20036;-73
2022/11/11 12:07:29;;;;;;;0.93;0.40;;;;;;;-146.48;100.00;60459.00;5305254;28;20020;-74
2022/11/11 12:10:48;;;;;;;1.98;0.35;;;;;;;-146.48;100.00;60459.00;5305938;28;20028;-73
2022/11/11 12:13:44;;;;;;;1.67;0.40;;;;;;;-146.48;100.00;60459.00;5291704;28;20249;-74
2022/11/11 12:16:25;;;;;;;1.25;0.40;;;;;;;-146.48;100.00;60459.00;5304967;28;20051;-74
2022/11/11 12:19:12;;;;;;;1.52;0.45;;;;;;;-146.48;100.00;60459.00;5304767;28;20035;-75
2022/11/11 12:22:03;;;;;;;1.13;0.30;;;;;;;-146.48;100.00;60459.00;5305569;28;20020;-75
2022/11/11 12:24:59;;;;;;;1.33;0.30;;;;;;;-146.48;100.00;60459.00;5305221;28;20111;-75
2022/11/11 12:27:42;;;;;;;0.60;0.20;;;;;;;-146.48;100.00;60459.00;5304857;28;20024;-74
2022/11/11 12:30:18;;;;;;;1.50;0.28;;;;;;;-146.48;100.00;60459.00;5305052;28;20053;-75
2022/11/11 12:33:05;;;;;;;2.25;0.40;;;;;;;-146.48;100.00;60459.00;5304345;28;20020;-74
2022/11/11 12:36:07;;;;;;;2.08;0.40;;;;;;;-146.48;100.00;60459.00;5304668;28;20043;-73
2022/11/11 12:38:58;;;;;;;1.52;0.40;;;;;;;-146.48;100.00;60459.00;5304511;28;20032;-73
2022/11/11 12:41:53;;;;;;;1.70;0.20;;;;;;;-146.48;100.00;60459.00;5304407;28;20027;-73
2022/11/11 12:44:49;;;;;;;1.60;0.30;;;;;;;-146.48;100.00;60459.00;5304446;28;20134;-73
2022/11/11 12:47:54;;;;;;;0.63;0.20;;;;;;;-146.48;100.00;60459.00;5303761;28;20039;-73
2022/11/11 12:50:44;;;;;;;0.88;0.20;;;;;;;-146.48;100.00;60459.00;5304413;28;20032;-73
2022/11/11 12:53:43;;;;;;;1.48;0.30;;;;;;;-146.48;100.00;60459.00;5303600;28;20035;-73
2022/11/11 12:56:48;;;;;;;2.40;0.30;;;;;;;-146.48;100.00;60459.00;5304178;28;20059;-73